RJCW/WKJ METAR and TAF weather

Enter ICAO airport designator
Station Type Date Time Source
RJCW METAR 2019/10/22 09:00 UTC NOAA

RJCW 220900Z 16004KT 130V200 9999 FEW030 BKN035 13/11 Q1020


Station Type Date Time Source
RJCW Decoded METAR 2019/10/22 09:00 UTC NOAA

Wakkanai Airport, Japan (RJCW) 45-24N 141-48E 11M
Oct 22, 2019 - 05:00 AM EDT / 2019.10.22 0900 UTC
Wind: from the SSE (160 degrees) at 5 MPH (4 KT) (direction variable):0
Visibility: greater than 7 mile(s):0
Sky conditions: mostly cloudy
Temperature: 55 F (13 C)
Dew Point: 51 F (11 C)
Relative Humidity: 87%
Pressure (altimeter): 30.12 in. Hg (1020 hPa)
ob: RJCW 220900Z 16004KT 130V200 9999 FEW030 BKN035 13/11 Q1020
cycle: 9

Station Type Date Time Source
RJCW TAF UTC NOAA

Error!

Example: see airport list